Main page
METAR-TAF:

METAR-TAF

Airports :

Santa Maria Airport

Aracaju, Sergipe, Brazil

latitude: 10-59S, longitude: 037-04W, elevation: 8 m

Current weather observation

The report was made 8 minutes ago, at 10:00 UTC
Wind 11 kt from the East
Temperature 28°C
Humidity 66%
Pressure 1014 hPa
Visibility 10 km or more
Few clouds at a height of 1700 ft

METAR: SBAR 141000Z 09011KT 9999 FEW017 28/21 Q1014

Time: 07:08 (10:08 UTC)

Forecast

The report was made 6 hours and 8 minutes ago, at 04:00 UTC
Forecast valid from 14 at 06 UTC to 15 at 06 UTC
Wind 8 kt from the East
Visibility 10 km or more
Few clouds at a height of 2000 ft
Becoming
from 14 at 10 UTC to 14 at 12 UTC
Wind 10 kt from the Southeast

TAF: SBAR 140400Z 1406/1506 10008KT 9999 FEW020 TN26/1408Z TX30/1414Z BECMG 1410/1412 13010KT RMK PEH

Weather observations and forecasts of more than 4000 airports (METAR and TAF reports).

The available stations are represented by yellow and red dots on the map.

Hover mouse over dot to see the name of the station.

Then click to see weather observations and forecasts.

To change the map : click on the green buttons with a black cross to zoom in, on the green button with a dash to zoom out, or on the green arrows for adjacent maps.


METAR-TAF: